Terminal Aerodrome Forecast
Issued by NWS Sterling, VA

Current Version | Previous Version | Graphics & Text | Print | Product List | Glossary On
Versions: 1 2 3 4 5 6 7 8 9 10 11 12 13 14 15 16 17 18 19 20 21 22 23 24 25 26
000
FTUS41 KLWX 190235 AAA
TAFIAD
TAF AMD
KIAD 190235Z 1903/2006 33006KT P6SM BKN035
     FM190400 31004KT P6SM BKN025 OVC035
     FM191000 33003KT P6SM SCT025 BKN035
     FM191300 31005KT P6SM FEW035 SCT250=

USA.gov is the U.S. government's official web portal to all federal, state and local government web resources and services.